KART/ART METAR and TAF weather

Enter ICAO airport designator
Station Type Date Time Source
KART METAR 2021/01/17 17:56 UTC NOAA

KART 171756Z AUTO 27014G23KT 10SM OVC022 01/M03 A2950 RMK AO2 SLP993 60000 T00061033 10011 20006 53011


Station Type Date Time Source
KART Decoded METAR 2021/01/17 17:56 UTC NOAA

WATERTOWN INTERNATIONAL AIRPORT, NY, United States (KART) 43-59N 076-02W 100M
Jan 17, 2021 - 12:56 PM EST / 2021.01.17 1756 UTC
Wind: from the W (270 degrees) at 16 MPH (14 KT) gusting to 26 MPH (23 KT):0
Visibility: 10 mile(s):0
Sky conditions: overcast
Temperature: 33.1 F (0.6 C)
Windchill: 23 F (-5 C):1
Dew Point: 26.1 F (-3.3 C)
Relative Humidity: 75%
Pressure (altimeter): 29.5 in. Hg (998 hPa)
Pressure tendency: 0.03 inches (1.1 hPa) higher than three hours ago
ob: KART 171756Z AUTO 27014G23KT 10SM OVC022 01/M03 A2950 RMK AO2 SLP993 60000 T00061033 10011 20006 53011
cycle: 18

Station Type Date Time Source
KART TAF 2021/01/17 18:33 UTC NOAA

TAF KART 171731Z 1718/1818 27016G23KT P6SM OVC025
FM172300 28010G20KT P6SM OVC015
FM180000 28009KT P6SM OVC020
FM180500 26004KT P6SM OVC020
FM181700 27006KT P6SM BKN025

Example: see airport list